sensor_id;sensor_type;location;lat;lon;timestamp;P1;durP1;ratioP1;P2;durP2;ratioP2
142;SDS011;63667;49.046;8.468;2023-02-26T00:01:23;8.83;;;5.07;;
142;SDS011;63667;49.046;8.468;2023-02-26T00:03:51;8.00;;;5.40;;
142;SDS011;63667;49.046;8.468;2023-02-26T00:06:18;9.33;;;6.17;;
142;SDS011;63667;49.046;8.468;2023-02-26T00:08:46;10.50;;;6.23;;
142;SDS011;63667;49.046;8.468;2023-02-26T00:11:13;10.07;;;5.73;;
142;SDS011;63667;49.046;8.468;2023-02-26T00:13:41;9.00;;;5.60;;
142;SDS011;63667;49.046;8.468;2023-02-26T00:18:42;11.50;;;5.93;;
142;SDS011;63667;49.046;8.468;2023-02-26T00:21:15;10.20;;;5.47;;
142;SDS011;63667;49.046;8.468;2023-02-26T00:23:42;13.43;;;6.20;;
142;SDS011;63667;49.046;8.468;2023-02-26T00:26:10;11.13;;;5.90;;
142;SDS011;63667;49.046;8.468;2023-02-26T00:28:38;18.77;;;6.13;;
142;SDS011;63667;49.046;8.468;2023-02-26T00:31:06;10.10;;;5.97;;
142;SDS011;63667;49.046;8.468;2023-02-26T00:33:36;11.87;;;5.40;;
142;SDS011;63667;49.046;8.468;2023-02-26T00:36:51;6.87;;;4.87;;
142;SDS011;63667;49.046;8.468;2023-02-26T00:41:25;8.10;;;5.10;;
142;SDS011;63667;49.046;8.468;2023-02-26T00:43:53;6.77;;;4.73;;
142;SDS011;63667;49.046;8.468;2023-02-26T00:49:27;10.77;;;5.17;;
142;SDS011;63667;49.046;8.468;2023-02-26T00:52:13;13.43;;;5.63;;
142;SDS011;63667;49.046;8.468;2023-02-26T00:54:43;9.97;;;5.07;;
142;SDS011;63667;49.046;8.468;2023-02-26T00:57:10;11.50;;;5.33;;
142;SDS011;63667;49.046;8.468;2023-02-26T00:59:37;9.20;;;5.20;;
142;SDS011;63667;49.046;8.468;2023-02-26T01:02:06;9.33;;;4.87;;
142;SDS011;63667;49.046;8.468;2023-02-26T01:04:33;7.60;;;4.90;;
142;SDS011;63667;49.046;8.468;2023-02-26T01:07:00;10.17;;;5.10;;
142;SDS011;63667;49.046;8.468;2023-02-26T01:09:32;9.37;;;5.57;;
142;SDS011;63667;49.046;8.468;2023-02-26T01:12:00;8.00;;;4.83;;
142;SDS011;63667;49.046;8.468;2023-02-26T01:14:28;9.90;;;5.40;;
142;SDS011;63667;49.046;8.468;2023-02-26T01:22:22;12.27;;;5.60;;
142;SDS011;63667;49.046;8.468;2023-02-26T01:24:53;17.40;;;5.37;;
142;SDS011;63667;49.046;8.468;2023-02-26T01:27:22;10.60;;;5.50;;
142;SDS011;63667;49.046;8.468;2023-02-26T01:29:50;11.40;;;4.80;;
142;SDS011;63667;49.046;8.468;2023-02-26T01:35:10;11.50;;;5.17;;
142;SDS011;63667;49.046;8.468;2023-02-26T01:37:47;8.17;;;5.13;;
142;SDS011;63667;49.046;8.468;2023-02-26T01:42:56;12.07;;;5.60;;
142;SDS011;63667;49.046;8.468;2023-02-26T01:45:32;10.80;;;5.50;;
142;SDS011;63667;49.046;8.468;2023-02-26T01:48:21;8.67;;;5.33;;
142;SDS011;63667;49.046;8.468;2023-02-26T01:51:02;13.27;;;5.60;;
142;SDS011;63667;49.046;8.468;2023-02-26T01:53:29;10.63;;;5.50;;
142;SDS011;63667;49.046;8.468;2023-02-26T01:56:15;9.67;;;5.00;;
142;SDS011;63667;49.046;8.468;2023-02-26T01:58:56;10.20;;;5.00;;
142;SDS011;63667;49.046;8.468;2023-02-26T02:01:25;10.30;;;5.77;;
142;SDS011;63667;49.046;8.468;2023-02-26T02:03:53;10.93;;;5.43;;
142;SDS011;63667;49.046;8.468;2023-02-26T02:06:21;13.17;;;5.67;;
142;SDS011;63667;49.046;8.468;2023-02-26T02:08:49;10.17;;;5.47;;
142;SDS011;63667;49.046;8.468;2023-02-26T02:11:17;12.13;;;5.50;;
142;SDS011;63667;49.046;8.468;2023-02-26T02:24:13;10.40;;;5.60;;
142;SDS011;63667;49.046;8.468;2023-02-26T02:26:47;11.30;;;5.93;;
142;SDS011;63667;49.046;8.468;2023-02-26T02:32:09;14.17;;;5.70;;
142;SDS011;63667;49.046;8.468;2023-02-26T02:34:44;12.37;;;5.70;;
142;SDS011;63667;49.046;8.468;2023-02-26T02:39:43;9.77;;;5.23;;
142;SDS011;63667;49.046;8.468;2023-02-26T02:44:42;13.50;;;6.23;;
142;SDS011;63667;49.046;8.468;2023-02-26T02:47:11;10.80;;;5.93;;
142;SDS011;63667;49.046;8.468;2023-02-26T02:49:54;17.20;;;6.63;;
142;SDS011;63667;49.046;8.468;2023-02-26T02:52:25;13.50;;;6.17;;
142;SDS011;63667;49.046;8.468;2023-02-26T02:54:55;10.77;;;6.17;;
142;SDS011;63667;49.046;8.468;2023-02-26T02:57:30;14.50;;;5.70;;
142;SDS011;63667;49.046;8.468;2023-02-26T03:00:00;12.43;;;6.00;;
142;SDS011;63667;49.046;8.468;2023-02-26T03:02:36;9.63;;;5.50;;
142;SDS011;63667;49.046;8.468;2023-02-26T03:05:05;7.63;;;5.20;;
142;SDS011;63667;49.046;8.468;2023-02-26T03:07:33;10.90;;;5.97;;
142;SDS011;63667;49.046;8.468;2023-02-26T03:10:02;13.40;;;6.10;;
142;SDS011;63667;49.046;8.468;2023-02-26T03:12:32;11.27;;;6.43;;
142;SDS011;63667;49.046;8.468;2023-02-26T03:14:59;15.00;;;7.80;;
142;SDS011;63667;49.046;8.468;2023-02-26T03:17:38;15.50;;;6.77;;
142;SDS011;63667;49.046;8.468;2023-02-26T03:22:51;14.07;;;7.23;;
142;SDS011;63667;49.046;8.468;2023-02-26T03:25:30;12.50;;;6.60;;
142;SDS011;63667;49.046;8.468;2023-02-26T03:28:06;12.17;;;6.20;;
142;SDS011;63667;49.046;8.468;2023-02-26T03:33:08;12.00;;;6.07;;
142;SDS011;63667;49.046;8.468;2023-02-26T03:38:22;15.60;;;6.17;;
142;SDS011;63667;49.046;8.468;2023-02-26T03:40:54;14.47;;;6.37;;
142;SDS011;63667;49.046;8.468;2023-02-26T03:43:41;10.50;;;6.40;;
142;SDS011;63667;49.046;8.468;2023-02-26T03:46:13;11.97;;;6.13;;
142;SDS011;63667;49.046;8.468;2023-02-26T03:48:41;16.03;;;6.80;;
142;SDS011;63667;49.046;8.468;2023-02-26T03:51:11;12.70;;;6.30;;
142;SDS011;63667;49.046;8.468;2023-02-26T03:53:53;11.00;;;6.20;;
142;SDS011;63667;49.046;8.468;2023-02-26T03:56:26;15.67;;;7.77;;
142;SDS011;63667;49.046;8.468;2023-02-26T03:58:55;15.60;;;5.53;;
142;SDS011;63667;49.046;8.468;2023-02-26T04:01:23;18.30;;;6.80;;
142;SDS011;63667;49.046;8.468;2023-02-26T04:03:56;9.10;;;5.70;;
142;SDS011;63667;49.046;8.468;2023-02-26T04:06:23;20.00;;;6.33;;
142;SDS011;63667;49.046;8.468;2023-02-26T04:08:50;15.93;;;6.43;;
142;SDS011;63667;49.046;8.468;2023-02-26T04:11:19;16.57;;;7.17;;
142;SDS011;63667;49.046;8.468;2023-02-26T04:13:48;26.37;;;6.37;;
142;SDS011;63667;49.046;8.468;2023-02-26T04:16:15;13.03;;;6.20;;
142;SDS011;63667;49.046;8.468;2023-02-26T04:18:43;9.70;;;6.17;;
142;SDS011;63667;49.046;8.468;2023-02-26T04:21:15;15.33;;;6.30;;
142;SDS011;63667;49.046;8.468;2023-02-26T04:23:42;13.23;;;7.00;;
142;SDS011;63667;49.046;8.468;2023-02-26T04:26:10;11.57;;;5.73;;
142;SDS011;63667;49.046;8.468;2023-02-26T04:28:38;14.97;;;6.07;;
142;SDS011;63667;49.046;8.468;2023-02-26T04:31:05;11.60;;;6.03;;
142;SDS011;63667;49.046;8.468;2023-02-26T04:33:32;10.93;;;6.20;;
142;SDS011;63667;49.046;8.468;2023-02-26T04:36:00;12.23;;;6.10;;
142;SDS011;63667;49.046;8.468;2023-02-26T04:38:28;18.03;;;6.03;;
142;SDS011;63667;49.046;8.468;2023-02-26T04:40:55;13.13;;;6.20;;
142;SDS011;63667;49.046;8.468;2023-02-26T04:43:22;12.03;;;6.67;;
142;SDS011;63667;49.046;8.468;2023-02-26T04:45:49;10.43;;;6.03;;
142;SDS011;63667;49.046;8.468;2023-02-26T04:48:16;15.47;;;7.50;;
142;SDS011;63667;49.046;8.468;2023-02-26T04:50:44;13.80;;;6.37;;
142;SDS011;63667;49.046;8.468;2023-02-26T04:53:12;11.20;;;6.07;;
142;SDS011;63667;49.046;8.468;2023-02-26T04:55:39;15.27;;;6.73;;
142;SDS011;63667;49.046;8.468;2023-02-26T04:58:06;12.17;;;6.33;;
142;SDS011;63667;49.046;8.468;2023-02-26T05:00:34;16.97;;;7.70;;
142;SDS011;63667;49.046;8.468;2023-02-26T05:03:01;20.57;;;8.40;;
142;SDS011;63667;49.046;8.468;2023-02-26T05:05:29;26.47;;;8.50;;
142;SDS011;63667;49.046;8.468;2023-02-26T05:07:57;24.00;;;8.30;;
142;SDS011;63667;49.046;8.468;2023-02-26T05:10:25;17.17;;;7.37;;
142;SDS011;63667;49.046;8.468;2023-02-26T05:12:52;23.80;;;9.10;;
142;SDS011;63667;49.046;8.468;2023-02-26T05:15:19;19.87;;;8.67;;
142;SDS011;63667;49.046;8.468;2023-02-26T05:17:46;20.23;;;7.73;;
142;SDS011;63667;49.046;8.468;2023-02-26T05:20:14;18.00;;;7.50;;
142;SDS011;63667;49.046;8.468;2023-02-26T05:22:42;14.80;;;6.07;;
142;SDS011;63667;49.046;8.468;2023-02-26T05:25:09;19.00;;;6.90;;
142;SDS011;63667;49.046;8.468;2023-02-26T05:27:40;12.60;;;5.80;;
142;SDS011;63667;49.046;8.468;2023-02-26T05:30:08;17.30;;;6.80;;
142;SDS011;63667;49.046;8.468;2023-02-26T05:32:37;17.00;;;7.33;;
142;SDS011;63667;49.046;8.468;2023-02-26T05:35:04;12.30;;;7.13;;
142;SDS011;63667;49.046;8.468;2023-02-26T05:37:32;19.83;;;8.17;;
142;SDS011;63667;49.046;8.468;2023-02-26T05:40:00;20.47;;;8.80;;
142;SDS011;63667;49.046;8.468;2023-02-26T05:42:27;16.57;;;7.77;;
142;SDS011;63667;49.046;8.468;2023-02-26T05:44:55;12.50;;;7.27;;
142;SDS011;63667;49.046;8.468;2023-02-26T05:47:23;18.00;;;8.03;;
142;SDS011;63667;49.046;8.468;2023-02-26T05:49:50;16.93;;;7.77;;
142;SDS011;63667;49.046;8.468;2023-02-26T05:52:18;38.42;;;9.60;;
142;SDS011;63667;49.046;8.468;2023-02-26T05:54:46;20.70;;;8.53;;
142;SDS011;63667;49.046;8.468;2023-02-26T05:57:13;14.83;;;8.30;;
142;SDS011;63667;49.046;8.468;2023-02-26T05:59:41;13.85;;;7.25;;
142;SDS011;63667;49.046;8.468;2023-02-26T06:02:09;13.03;;;6.90;;
142;SDS011;63667;49.046;8.468;2023-02-26T06:04:36;19.80;;;7.50;;
142;SDS011;63667;49.046;8.468;2023-02-26T06:07:04;14.23;;;6.97;;
142;SDS011;63667;49.046;8.468;2023-02-26T06:09:31;14.07;;;7.22;;
142;SDS011;63667;49.046;8.468;2023-02-26T06:11:59;15.98;;;6.47;;
142;SDS011;63667;49.046;8.468;2023-02-26T06:14:26;13.00;;;6.80;;
142;SDS011;63667;49.046;8.468;2023-02-26T06:16:54;15.27;;;7.18;;
142;SDS011;63667;49.046;8.468;2023-02-26T06:19:22;16.13;;;7.73;;
142;SDS011;63667;49.046;8.468;2023-02-26T06:21:49;20.23;;;7.55;;
142;SDS011;63667;49.046;8.468;2023-02-26T06:24:16;18.13;;;7.47;;
142;SDS011;63667;49.046;8.468;2023-02-26T06:26:43;16.77;;;7.68;;
142;SDS011;63667;49.046;8.468;2023-02-26T06:29:11;16.10;;;7.60;;
142;SDS011;63667;49.046;8.468;2023-02-26T06:31:38;14.05;;;7.10;;
142;SDS011;63667;49.046;8.468;2023-02-26T06:34:06;12.07;;;6.40;;
142;SDS011;63667;49.046;8.468;2023-02-26T06:36:33;19.63;;;8.20;;
142;SDS011;63667;49.046;8.468;2023-02-26T06:39:00;19.60;;;7.37;;
142;SDS011;63667;49.046;8.468;2023-02-26T06:41:28;18.10;;;7.20;;
142;SDS011;63667;49.046;8.468;2023-02-26T06:43:55;14.07;;;6.90;;
142;SDS011;63667;49.046;8.468;2023-02-26T06:46:25;14.57;;;7.40;;
142;SDS011;63667;49.046;8.468;2023-02-26T06:48:52;15.60;;;7.03;;
142;SDS011;63667;49.046;8.468;2023-02-26T06:51:20;20.17;;;8.07;;
142;SDS011;63667;49.046;8.468;2023-02-26T06:53:48;19.13;;;8.20;;
142;SDS011;63667;49.046;8.468;2023-02-26T06:56:16;17.20;;;7.07;;
142;SDS011;63667;49.046;8.468;2023-02-26T06:58:45;18.53;;;7.80;;
142;SDS011;63667;49.046;8.468;2023-02-26T07:01:13;15.23;;;7.10;;
142;SDS011;63667;49.046;8.468;2023-02-26T07:03:41;20.83;;;7.77;;
142;SDS011;63667;49.046;8.468;2023-02-26T07:06:08;17.70;;;7.43;;
142;SDS011;63667;49.046;8.468;2023-02-26T07:08:38;17.60;;;7.93;;
142;SDS011;63667;49.046;8.468;2023-02-26T07:11:05;12.77;;;6.60;;
142;SDS011;63667;49.046;8.468;2023-02-26T07:13:35;14.10;;;7.03;;
142;SDS011;63667;49.046;8.468;2023-02-26T07:16:03;14.67;;;6.73;;
142;SDS011;63667;49.046;8.468;2023-02-26T07:18:32;15.73;;;7.40;;
142;SDS011;63667;49.046;8.468;2023-02-26T07:21:00;13.40;;;6.60;;
142;SDS011;63667;49.046;8.468;2023-02-26T07:23:27;13.97;;;6.13;;
142;SDS011;63667;49.046;8.468;2023-02-26T07:25:55;17.43;;;9.50;;
142;SDS011;63667;49.046;8.468;2023-02-26T07:28:23;12.70;;;6.70;;
142;SDS011;63667;49.046;8.468;2023-02-26T07:30:52;15.23;;;7.40;;
142;SDS011;63667;49.046;8.468;2023-02-26T07:33:20;15.10;;;7.83;;
142;SDS011;63667;49.046;8.468;2023-02-26T07:35:47;19.20;;;8.10;;
142;SDS011;63667;49.046;8.468;2023-02-26T07:38:14;19.33;;;7.83;;
142;SDS011;63667;49.046;8.468;2023-02-26T07:40:41;16.23;;;7.17;;
142;SDS011;63667;49.046;8.468;2023-02-26T07:43:09;16.63;;;7.60;;
142;SDS011;63667;49.046;8.468;2023-02-26T07:45:37;12.33;;;6.70;;
142;SDS011;63667;49.046;8.468;2023-02-26T07:48:04;15.00;;;6.80;;
142;SDS011;63667;49.046;8.468;2023-02-26T07:50:32;13.57;;;6.47;;
142;SDS011;63667;49.046;8.468;2023-02-26T07:52:59;15.40;;;6.63;;
142;SDS011;63667;49.046;8.468;2023-02-26T07:55:27;15.20;;;6.27;;
142;SDS011;63667;49.046;8.468;2023-02-26T07:57:55;14.40;;;7.10;;
142;SDS011;63667;49.046;8.468;2023-02-26T08:00:23;12.10;;;6.53;;
142;SDS011;63667;49.046;8.468;2023-02-26T08:02:51;14.93;;;7.10;;
142;SDS011;63667;49.046;8.468;2023-02-26T08:05:18;14.83;;;7.10;;
142;SDS011;63667;49.046;8.468;2023-02-26T08:07:45;16.30;;;6.70;;
142;SDS011;63667;49.046;8.468;2023-02-26T08:10:13;16.60;;;6.50;;
142;SDS011;63667;49.046;8.468;2023-02-26T08:12:40;13.33;;;6.23;;
142;SDS011;63667;49.046;8.468;2023-02-26T08:15:08;16.07;;;6.47;;
142;SDS011;63667;49.046;8.468;2023-02-26T08:17:39;15.73;;;6.20;;
142;SDS011;63667;49.046;8.468;2023-02-26T08:20:07;13.73;;;6.23;;
142;SDS011;63667;49.046;8.468;2023-02-26T08:22:36;17.37;;;6.70;;
142;SDS011;63667;49.046;8.468;2023-02-26T08:25:04;10.30;;;5.50;;
142;SDS011;63667;49.046;8.468;2023-02-26T08:27:33;10.73;;;6.00;;
142;SDS011;63667;49.046;8.468;2023-02-26T08:30:00;11.77;;;6.03;;
142;SDS011;63667;49.046;8.468;2023-02-26T08:32:26;9.97;;;5.30;;
142;SDS011;63667;49.046;8.468;2023-02-26T08:34:52;11.33;;;5.47;;
142;SDS011;63667;49.046;8.468;2023-02-26T08:37:19;12.30;;;5.13;;
142;SDS011;63667;49.046;8.468;2023-02-26T08:39:49;7.40;;;4.80;;
142;SDS011;63667;49.046;8.468;2023-02-26T08:42:16;10.20;;;3.97;;
142;SDS011;63667;49.046;8.468;2023-02-26T08:44:45;9.60;;;4.40;;
142;SDS011;63667;49.046;8.468;2023-02-26T08:47:11;9.80;;;4.87;;
142;SDS011;63667;49.046;8.468;2023-02-26T08:49:38;10.83;;;4.93;;
142;SDS011;63667;49.046;8.468;2023-02-26T08:52:04;5.47;;;3.90;;
142;SDS011;63667;49.046;8.468;2023-02-26T08:54:32;13.50;;;5.10;;
142;SDS011;63667;49.046;8.468;2023-02-26T08:56:59;7.90;;;4.73;;
142;SDS011;63667;49.046;8.468;2023-02-26T08:59:28;13.77;;;5.37;;
142;SDS011;63667;49.046;8.468;2023-02-26T09:01:55;10.93;;;5.07;;
142;SDS011;63667;49.046;8.468;2023-02-26T09:04:23;10.10;;;4.80;;
142;SDS011;63667;49.046;8.468;2023-02-26T09:06:51;6.87;;;4.17;;
142;SDS011;63667;49.046;8.468;2023-02-26T09:09:19;10.50;;;4.50;;
142;SDS011;63667;49.046;8.468;2023-02-26T09:11:46;11.30;;;4.23;;
142;SDS011;63667;49.046;8.468;2023-02-26T09:14:14;5.90;;;3.90;;
142;SDS011;63667;49.046;8.468;2023-02-26T09:16:41;12.07;;;4.10;;
142;SDS011;63667;49.046;8.468;2023-02-26T09:19:09;6.70;;;4.17;;
142;SDS011;63667;49.046;8.468;2023-02-26T09:21:36;6.33;;;3.53;;
142;SDS011;63667;49.046;8.468;2023-02-26T09:24:03;14.10;;;4.70;;
142;SDS011;63667;49.046;8.468;2023-02-26T09:26:31;8.73;;;3.50;;
142;SDS011;63667;49.046;8.468;2023-02-26T09:28:58;5.70;;;3.40;;
142;SDS011;63667;49.046;8.468;2023-02-26T09:31:25;6.70;;;3.00;;
142;SDS011;63667;49.046;8.468;2023-02-26T09:33:53;8.27;;;3.23;;
142;SDS011;63667;49.046;8.468;2023-02-26T09:36:20;4.40;;;3.20;;
142;SDS011;63667;49.046;8.468;2023-02-26T09:38:47;4.77;;;3.63;;
142;SDS011;63667;49.046;8.468;2023-02-26T09:41:16;7.20;;;3.37;;
142;SDS011;63667;49.046;8.468;2023-02-26T09:46:27;4.00;;;3.40;;
142;SDS011;63667;49.046;8.468;2023-02-26T09:48:58;5.13;;;3.53;;
142;SDS011;63667;49.046;8.468;2023-02-26T09:51:29;6.53;;;3.83;;
142;SDS011;63667;49.046;8.468;2023-02-26T09:53:58;5.47;;;3.70;;
142;SDS011;63667;49.046;8.468;2023-02-26T09:56:27;5.60;;;3.23;;
142;SDS011;63667;49.046;8.468;2023-02-26T09:58:57;8.53;;;3.03;;
142;SDS011;63667;49.046;8.468;2023-02-26T10:01:28;6.80;;;3.70;;
142;SDS011;63667;49.046;8.468;2023-02-26T10:06:30;4.97;;;3.10;;
142;SDS011;63667;49.046;8.468;2023-02-26T10:09:18;4.60;;;2.80;;
142;SDS011;63667;49.046;8.468;2023-02-26T10:11:52;4.40;;;3.03;;
142;SDS011;63667;49.046;8.468;2023-02-26T10:14:23;5.33;;;3.10;;
142;SDS011;63667;49.046;8.468;2023-02-26T10:16:55;10.50;;;3.20;;
142;SDS011;63667;49.046;8.468;2023-02-26T10:19:34;7.17;;;3.00;;
142;SDS011;63667;49.046;8.468;2023-02-26T10:22:07;4.30;;;3.07;;
142;SDS011;63667;49.046;8.468;2023-02-26T10:24:45;4.47;;;3.20;;
142;SDS011;63667;49.046;8.468;2023-02-26T10:27:16;9.50;;;3.73;;
142;SDS011;63667;49.046;8.468;2023-02-26T10:35:03;4.27;;;3.20;;
142;SDS011;63667;49.046;8.468;2023-02-26T10:37:52;9.93;;;3.50;;
142;SDS011;63667;49.046;8.468;2023-02-26T10:50:43;6.10;;;3.27;;
142;SDS011;63667;49.046;8.468;2023-02-26T10:53:11;5.20;;;2.60;;
142;SDS011;63667;49.046;8.468;2023-02-26T10:58:35;7.87;;;3.80;;
142;SDS011;63667;49.046;8.468;2023-02-26T11:01:03;7.63;;;4.53;;
142;SDS011;63667;49.046;8.468;2023-02-26T11:03:33;9.07;;;4.17;;
142;SDS011;63667;49.046;8.468;2023-02-26T11:06:04;9.63;;;4.20;;
142;SDS011;63667;49.046;8.468;2023-02-26T11:08:34;6.87;;;3.90;;
142;SDS011;63667;49.046;8.468;2023-02-26T11:11:03;6.80;;;3.43;;
142;SDS011;63667;49.046;8.468;2023-02-26T11:13:32;5.70;;;3.50;;
142;SDS011;63667;49.046;8.468;2023-02-26T11:16:00;4.83;;;2.73;;
142;SDS011;63667;49.046;8.468;2023-02-26T11:18:49;4.80;;;2.70;;
142;SDS011;63667;49.046;8.468;2023-02-26T11:21:18;4.63;;;2.97;;
142;SDS011;63667;49.046;8.468;2023-02-26T11:23:47;4.60;;;2.60;;
142;SDS011;63667;49.046;8.468;2023-02-26T11:26:15;3.43;;;2.90;;
142;SDS011;63667;49.046;8.468;2023-02-26T11:28:44;2.70;;;2.40;;
142;SDS011;63667;49.046;8.468;2023-02-26T11:31:13;7.70;;;3.80;;
142;SDS011;63667;49.046;8.468;2023-02-26T11:33:45;5.00;;;2.97;;
142;SDS011;63667;49.046;8.468;2023-02-26T11:36:22;3.53;;;3.13;;
142;SDS011;63667;49.046;8.468;2023-02-26T11:38:57;4.87;;;3.47;;
142;SDS011;63667;49.046;8.468;2023-02-26T11:41:24;4.70;;;2.80;;
142;SDS011;63667;49.046;8.468;2023-02-26T11:44:10;4.47;;;2.80;;
142;SDS011;63667;49.046;8.468;2023-02-26T11:46:45;4.80;;;3.07;;
142;SDS011;63667;49.046;8.468;2023-02-26T11:49:13;3.63;;;3.20;;
142;SDS011;63667;49.046;8.468;2023-02-26T11:51:45;3.83;;;2.70;;
142;SDS011;63667;49.046;8.468;2023-02-26T11:54:22;3.13;;;2.80;;
142;SDS011;63667;49.046;8.468;2023-02-26T11:56:50;6.77;;;3.80;;
142;SDS011;63667;49.046;8.468;2023-02-26T11:59:19;3.53;;;2.90;;
142;SDS011;63667;49.046;8.468;2023-02-26T12:01:49;4.70;;;3.03;;
142;SDS011;63667;49.046;8.468;2023-02-26T12:04:23;3.97;;;2.70;;
142;SDS011;63667;49.046;8.468;2023-02-26T12:06:51;7.00;;;3.10;;
142;SDS011;63667;49.046;8.468;2023-02-26T12:09:39;3.37;;;2.70;;
142;SDS011;63667;49.046;8.468;2023-02-26T12:12:12;4.97;;;3.27;;
142;SDS011;63667;49.046;8.468;2023-02-26T12:17:30;4.10;;;2.47;;
142;SDS011;63667;49.046;8.468;2023-02-26T12:20:10;3.23;;;2.50;;
142;SDS011;63667;49.046;8.468;2023-02-26T12:38:35;2.50;;;2.30;;
142;SDS011;63667;49.046;8.468;2023-02-26T12:41:21;3.27;;;2.63;;
142;SDS011;63667;49.046;8.468;2023-02-26T12:43:53;3.03;;;2.70;;
142;SDS011;63667;49.046;8.468;2023-02-26T12:46:25;3.00;;;2.83;;
142;SDS011;63667;49.046;8.468;2023-02-26T13:07:12;3.77;;;2.33;;
142;SDS011;63667;49.046;8.468;2023-02-26T13:14:49;3.13;;;2.70;;
142;SDS011;63667;49.046;8.468;2023-02-26T13:19:58;3.70;;;2.40;;
142;SDS011;63667;49.046;8.468;2023-02-26T13:22:31;4.60;;;2.60;;
142;SDS011;63667;49.046;8.468;2023-02-26T13:27:27;3.33;;;2.80;;
142;SDS011;63667;49.046;8.468;2023-02-26T13:32:27;4.93;;;2.70;;
142;SDS011;63667;49.046;8.468;2023-02-26T13:35:05;2.93;;;2.30;;
142;SDS011;63667;49.046;8.468;2023-02-26T13:37:37;3.97;;;2.30;;
142;SDS011;63667;49.046;8.468;2023-02-26T13:45:17;3.00;;;2.23;;
142;SDS011;63667;49.046;8.468;2023-02-26T13:48:03;2.80;;;2.17;;
142;SDS011;63667;49.046;8.468;2023-02-26T13:55:53;5.97;;;2.63;;
142;SDS011;63667;49.046;8.468;2023-02-26T14:00:57;2.27;;;2.00;;
142;SDS011;63667;49.046;8.468;2023-02-26T14:05:55;2.60;;;2.10;;
142;SDS011;63667;49.046;8.468;2023-02-26T14:11:05;5.50;;;2.83;;
142;SDS011;63667;49.046;8.468;2023-02-26T14:14:05;4.83;;;1.70;;
142;SDS011;63667;49.046;8.468;2023-02-26T14:16:33;4.57;;;2.20;;
142;SDS011;63667;49.046;8.468;2023-02-26T14:19:20;3.07;;;2.10;;
142;SDS011;63667;49.046;8.468;2023-02-26T14:21:49;2.07;;;1.83;;
142;SDS011;63667;49.046;8.468;2023-02-26T14:24:24;2.93;;;2.27;;
142;SDS011;63667;49.046;8.468;2023-02-26T14:29:40;2.20;;;1.80;;
142;SDS011;63667;49.046;8.468;2023-02-26T14:32:21;3.03;;;2.20;;
142;SDS011;63667;49.046;8.468;2023-02-26T14:34:53;2.10;;;1.83;;
142;SDS011;63667;49.046;8.468;2023-02-26T14:37:23;2.60;;;2.03;;
142;SDS011;63667;49.046;8.468;2023-02-26T14:39:58;2.57;;;2.07;;
142;SDS011;63667;49.046;8.468;2023-02-26T14:45:33;2.30;;;2.00;;
142;SDS011;63667;49.046;8.468;2023-02-26T14:48:01;2.60;;;2.10;;
142;SDS011;63667;49.046;8.468;2023-02-26T14:58:30;3.07;;;2.30;;
142;SDS011;63667;49.046;8.468;2023-02-26T15:16:55;4.83;;;2.60;;
142;SDS011;63667;49.046;8.468;2023-02-26T15:24:55;4.20;;;2.20;;
142;SDS011;63667;49.046;8.468;2023-02-26T15:27:41;3.40;;;2.47;;
142;SDS011;63667;49.046;8.468;2023-02-26T15:30:29;2.90;;;2.27;;
142;SDS011;63667;49.046;8.468;2023-02-26T15:33:17;2.30;;;2.10;;
142;SDS011;63667;49.046;8.468;2023-02-26T15:35:47;2.50;;;2.00;;
142;SDS011;63667;49.046;8.468;2023-02-26T15:38:48;3.20;;;2.10;;
142;SDS011;63667;49.046;8.468;2023-02-26T15:41:15;2.60;;;2.40;;
142;SDS011;63667;49.046;8.468;2023-02-26T15:44:03;3.70;;;2.70;;
142;SDS011;63667;49.046;8.468;2023-02-26T15:46:31;2.20;;;1.93;;
142;SDS011;63667;49.046;8.468;2023-02-26T15:49:00;2.80;;;2.20;;
142;SDS011;63667;49.046;8.468;2023-02-26T15:51:28;2.60;;;2.17;;
142;SDS011;63667;49.046;8.468;2023-02-26T15:53:55;3.13;;;2.67;;
142;SDS011;63667;49.046;8.468;2023-02-26T15:56:29;2.60;;;1.90;;
142;SDS011;63667;49.046;8.468;2023-02-26T15:59:05;2.30;;;1.70;;
142;SDS011;63667;49.046;8.468;2023-02-26T16:01:33;2.57;;;2.13;;
142;SDS011;63667;49.046;8.468;2023-02-26T16:04:02;3.33;;;2.30;;
142;SDS011;63667;49.046;8.468;2023-02-26T16:06:32;4.10;;;2.10;;
142;SDS011;63667;49.046;8.468;2023-02-26T16:09:00;3.50;;;2.20;;
142;SDS011;63667;49.046;8.468;2023-02-26T16:11:38;3.23;;;2.30;;
142;SDS011;63667;49.046;8.468;2023-02-26T16:14:05;4.00;;;3.10;;
142;SDS011;63667;49.046;8.468;2023-02-26T16:16:39;5.13;;;2.57;;
142;SDS011;63667;49.046;8.468;2023-02-26T16:19:07;4.27;;;2.30;;
142;SDS011;63667;49.046;8.468;2023-02-26T16:21:36;2.73;;;2.50;;
142;SDS011;63667;49.046;8.468;2023-02-26T16:24:05;4.40;;;2.27;;
142;SDS011;63667;49.046;8.468;2023-02-26T16:26:34;3.27;;;2.20;;
142;SDS011;63667;49.046;8.468;2023-02-26T16:29:05;3.13;;;2.40;;
142;SDS011;63667;49.046;8.468;2023-02-26T16:31:32;3.13;;;2.30;;
142;SDS011;63667;49.046;8.468;2023-02-26T16:34:03;3.40;;;2.27;;
142;SDS011;63667;49.046;8.468;2023-02-26T16:36:31;3.07;;;1.90;;
142;SDS011;63667;49.046;8.468;2023-02-26T16:39:01;4.10;;;1.80;;
142;SDS011;63667;49.046;8.468;2023-02-26T16:41:29;3.33;;;2.20;;
142;SDS011;63667;49.046;8.468;2023-02-26T16:43:58;3.10;;;2.23;;
142;SDS011;63667;49.046;8.468;2023-02-26T16:51:29;2.70;;;2.00;;
142;SDS011;63667;49.046;8.468;2023-02-26T16:53:58;2.87;;;2.20;;
142;SDS011;63667;49.046;8.468;2023-02-26T16:56:32;4.73;;;2.40;;
142;SDS011;63667;49.046;8.468;2023-02-26T17:01:30;2.90;;;2.23;;
142;SDS011;63667;49.046;8.468;2023-02-26T17:04:00;2.77;;;2.37;;
142;SDS011;63667;49.046;8.468;2023-02-26T17:06:28;2.57;;;2.30;;
142;SDS011;63667;49.046;8.468;2023-02-26T17:08:57;4.63;;;2.13;;
142;SDS011;63667;49.046;8.468;2023-02-26T17:11:28;3.60;;;2.10;;
142;SDS011;63667;49.046;8.468;2023-02-26T17:16:46;2.33;;;2.17;;
142;SDS011;63667;49.046;8.468;2023-02-26T17:19:14;4.00;;;2.07;;
142;SDS011;63667;49.046;8.468;2023-02-26T17:21:45;3.73;;;2.60;;
142;SDS011;63667;49.046;8.468;2023-02-26T17:24:16;3.60;;;2.50;;
142;SDS011;63667;49.046;8.468;2023-02-26T17:26:43;6.67;;;2.80;;
142;SDS011;63667;49.046;8.468;2023-02-26T17:29:15;3.47;;;2.63;;
142;SDS011;63667;49.046;8.468;2023-02-26T17:31:43;4.53;;;3.00;;
142;SDS011;63667;49.046;8.468;2023-02-26T17:34:10;3.80;;;2.80;;
142;SDS011;63667;49.046;8.468;2023-02-26T17:36:38;4.40;;;3.03;;
142;SDS011;63667;49.046;8.468;2023-02-26T17:39:08;7.57;;;3.17;;
142;SDS011;63667;49.046;8.468;2023-02-26T17:41:35;7.37;;;4.23;;
142;SDS011;63667;49.046;8.468;2023-02-26T17:44:02;5.40;;;3.70;;
142;SDS011;63667;49.046;8.468;2023-02-26T17:46:30;9.57;;;3.30;;
142;SDS011;63667;49.046;8.468;2023-02-26T17:48:57;8.53;;;4.40;;
142;SDS011;63667;49.046;8.468;2023-02-26T17:51:25;4.63;;;2.70;;
142;SDS011;63667;49.046;8.468;2023-02-26T17:53:53;2.77;;;2.40;;
142;SDS011;63667;49.046;8.468;2023-02-26T17:56:23;3.40;;;2.40;;
142;SDS011;63667;49.046;8.468;2023-02-26T17:58:53;3.37;;;2.27;;
142;SDS011;63667;49.046;8.468;2023-02-26T18:01:21;2.50;;;2.27;;
142;SDS011;63667;49.046;8.468;2023-02-26T18:03:49;2.83;;;2.10;;
142;SDS011;63667;49.046;8.468;2023-02-26T18:06:16;2.43;;;2.27;;
142;SDS011;63667;49.046;8.468;2023-02-26T18:08:43;2.97;;;2.00;;
142;SDS011;63667;49.046;8.468;2023-02-26T18:11:14;4.23;;;2.10;;
142;SDS011;63667;49.046;8.468;2023-02-26T18:13:41;2.97;;;2.10;;
142;SDS011;63667;49.046;8.468;2023-02-26T18:16:11;4.53;;;2.43;;
142;SDS011;63667;49.046;8.468;2023-02-26T18:18:40;6.60;;;2.00;;
142;SDS011;63667;49.046;8.468;2023-02-26T18:21:09;2.37;;;1.93;;
142;SDS011;63667;49.046;8.468;2023-02-26T18:23:36;4.57;;;2.67;;
142;SDS011;63667;49.046;8.468;2023-02-26T18:26:04;5.97;;;3.23;;
142;SDS011;63667;49.046;8.468;2023-02-26T18:28:32;5.57;;;2.50;;